Luminous Kobe-2 — JJ3868 — position and weather

sailwx.info

Track history (hours):
 
Tides and Currents Weather Stations Pressure Air Temp Water Temp Dewpoint Dewpoint Depression Visibility Wind Speed Wind Dir Waves Ship Positions

Luminous Kobe-2

Last reported at 2016-May-31 04:33 UTC. Time now 2016-May-31 05:54 UTC.
Position N 34°39' E 135°11'.

Length 105 m; draft 4.5 m.

Type: Passenger vessel. MMSI: 431000469.

Date/timePositionNaut miles runAvg speedWind from/ knotsBaromVisibWave heightAir tempDewpointWater temp
2016-May-31 04:33N 34°39' E 135°11'2 2.2
2016-May-31 03:33N 34°37' E 135°13'4 3.5
2016-May-31 02:29N 34°41' E 135°11'0 0.0
2016-May-31 01:29N 34°41' E 135°11'0 0.0
2016-May-31 00:29N 34°41' E 135°11'0 0.0
2016-May-30 23:28N 34°41' E 135°11'0 0.0
2016-May-30 22:29N 34°41' E 135°11'0 0.0
2016-May-30 21:22N 34°41' E 135°11'0 0.0
2016-May-30 20:29N 34°41' E 135°11'0 0.0
2016-May-30 19:29N 34°41' E 135°11'0 0.0
2016-May-30 18:28N 34°41' E 135°11'0 0.0
2016-May-30 17:28N 34°41' E 135°11'0 0.0
2016-May-30 16:28N 34°41' E 135°11'0 0.0
2016-May-30 15:28N 34°41' E 135°11'0 0.0
2016-May-30 14:28N 34°41' E 135°11'0 0.0
2016-May-30 13:28N 34°41' E 135°11'0 0.0
2016-May-30 12:28N 34°41' E 135°11'6 6.9
2016-May-30 11:33N 34°36' E 135°07'1 1.1
2016-May-30 10:34N 34°37' E 135°07'5 5.3
2016-May-30 09:33N 34°41' E 135°11'5 4.9
2016-May-30 08:33N 34°37' E 135°07'5 4.1
2016-May-30 07:22N 34°41' E 135°11'0 0.0
2016-May-30 06:28N 34°41' E 135°11'0 0.0
2016-May-30 05:28N 34°41' E 135°11'2 2.4
2016-May-30 04:33N 34°39' E 135°11'2 2.1
2016-May-30 03:33N 34°37' E 135°13'4 3.2
2016-May-30 02:23N 34°41' E 135°11'0 0.0
2016-May-30 01:29N 34°41' E 135°11'0 0.0
2016-May-30 00:29N 34°41' E 135°11'0 0.0
2016-May-29 23:23N 34°41' E 135°11'0 0.0
2016-May-29 22:23N 34°41' E 135°11'0 0.0
2016-May-29 21:29N 34°41' E 135°11'0 0.0
2016-May-29 20:29N 34°41' E 135°11'0 0.0
2016-May-29 19:29N 34°41' E 135°11'0 0.0
2016-May-29 18:29N 34°41' E 135°11'0 0.0
2016-May-29 17:29N 34°41' E 135°11'0 0.0
2016-May-29 16:29N 34°41' E 135°11'0 0.0
2016-May-29 15:23N 34°41' E 135°11'0 0.0
2016-May-29 14:29N 34°41' E 135°11'0 0.0
2016-May-29 13:29N 34°41' E 135°11'0 0.0
2016-May-29 12:29N 34°41' E 135°11'8 8.0
2016-May-29 11:33N 34°35' E 135°06'2 2.1
2016-May-29 10:33N 34°37' E 135°07'5 4.7
2016-May-29 09:23N 34°41' E 135°11'2 2.3
2016-May-29 08:33N 34°39' E 135°11'2 2.1
2016-May-29 07:33N 34°37' E 135°13'4 3.7
2016-May-29 06:33N 34°41' E 135°11'0 0.0
2016-May-29 05:33N 34°41' E 135°11'3 2.5
2016-May-29 04:33N 34°38' E 135°11'2 2.0
2016-May-29 03:33N 34°38' E 135°13'4 3.4
2016-May-29 02:32N 34°41' E 135°11'0 0.0
2016-May-29 01:32N 34°41' E 135°11'0 0.0
2016-May-29 00:32N 34°41' E 135°11'0 0.0
2016-May-28 23:32N 34°41' E 135°11'0 0.0
2016-May-28 22:32N 34°41' E 135°11'0 0.0
2016-May-28 21:26N 34°41' E 135°11'0 0.0
2016-May-28 20:32N 34°41' E 135°11'0 0.0
2016-May-28 19:32N 34°41' E 135°11'0 0.0
2016-May-28 18:32N 34°41' E 135°11'0 0.0
2016-May-28 17:26N 34°41' E 135°11'0 0.0
2016-May-28 16:32N 34°41' E 135°11'0 0.0
2016-May-28 15:32N 34°41' E 135°11'0 0.0
2016-May-28 14:32N 34°41' E 135°11'0 0.0
2016-May-28 13:32N 34°41' E 135°11'0 0.0
2016-May-28 12:26N 34°41' E 135°11'6 7.1
2016-May-28 11:33N 34°36' E 135°07'1 0.8
2016-May-28 10:33N 34°37' E 135°06'6 5.7
2016-May-28 09:31N 34°41' E 135°11'2 2.0
2016-May-28 08:33N 34°39' E 135°11'2 1.9
2016-May-28 07:33N 34°38' E 135°13'4 2.8
2016-May-28 06:18N 34°41' E 135°11'0 0.0
2016-May-28 05:24N 34°41' E 135°11'2 2.4
2016-May-28 04:33N 34°39' E 135°11'2 2.1
2016-May-28 03:33N 34°38' E 135°13'4 3.6
2016-May-28 02:33N 34°41' E 135°11'0 0.0
2016-May-28 01:33N 34°41' E 135°11'0 0.0
2016-May-28 00:27N 34°41' E 135°11'0 0.0
2016-May-27 23:09N 34°41' E 135°11'0 0.0
2016-May-27 22:33N 34°41' E 135°11'0 0.0
2016-May-27 21:27N 34°41' E 135°11'0 0.0
2016-May-27 20:27N 34°41' E 135°11'0 0.0
2016-May-27 19:33N 34°41' E 135°11'0 0.0
2016-May-27 18:27N 34°41' E 135°11'0 0.0
2016-May-27 17:33N 34°41' E 135°11'0 0.0
2016-May-27 16:33N 34°41' E 135°11'0 0.0
2016-May-27 15:33N 34°41' E 135°11'0 0.0
2016-May-27 14:33N 34°41' E 135°11'0 0.0
2016-May-27 13:33N 34°41' E 135°11'0 0.0
2016-May-27 12:33N 34°41' E 135°11'6 6.3
2016-May-27 11:33N 34°36' E 135°07'1 1.2
2016-May-27 10:33N 34°37' E 135°06'6 5.9
2016-May-27 09:33N 34°41' E 135°11'5 5.2
2016-May-27 08:34N 34°37' E 135°07'5 4.8
2016-May-27 07:29N 34°41' E 135°11'0 0.0
2016-May-27 06:29N 34°41' E 135°11'0 0.0
2016-May-27 05:29N 34°41' E 135°11'2 2.4
2016-May-27 04:33N 34°39' E 135°11'2 1.6
2016-May-27 03:33N 34°37' E 135°13'4 3.3
2016-May-27 02:30N 34°41' E 135°11'0 0.0
2016-May-27 01:30N 34°41' E 135°11'0 0.0
2016-May-27 00:30N 34°41' E 135°11'0 0.0
2016-May-26 23:30N 34°41' E 135°11'0 0.0
2016-May-26 22:30N 34°41' E 135°11'0 0.0
2016-May-26 21:30N 34°41' E 135°11'0 0.0
2016-May-26 20:30N 34°41' E 135°11'0 0.0
2016-May-26 19:30N 34°41' E 135°11'0 0.0
2016-May-26 18:30N 34°41' E 135°11'0 0.0
2016-May-26 17:30N 34°41' E 135°11'0 0.0
2016-May-26 16:30N 34°41' E 135°11'0 0.0
2016-May-26 15:30N 34°41' E 135°11'0 0.0
2016-May-26 14:30N 34°41' E 135°11'0 0.0
2016-May-26 13:30N 34°41' E 135°11'0 0.0
2016-May-26 12:30N 34°41' E 135°11'7 7.0
2016-May-26 11:33N 34°35' E 135°07'1 1.3
2016-May-26 10:33N 34°37' E 135°06'6 5.5
2016-May-26 09:28N 34°41' E 135°11'5 5.4
2016-May-26 08:33N 34°37' E 135°07'5 4.9
2016-May-26 07:33N 34°41' E 135°11'0 0.0
2016-May-26 06:33N 34°41' E 135°11'0 0.0
2016-May-26 05:33N 34°41' E 135°11'2 2.3
2016-May-26 04:33N 34°39' E 135°11'2 1.5
2016-May-26 03:31N 34°38' E 135°12'3 3.2
2016-May-26 02:27N 34°41' E 135°11'0 0.0
2016-May-26 01:33N 34°41' E 135°11'0 0.0
2016-May-26 00:27N 34°41' E 135°11'0 0.0
2016-May-25 23:33N 34°41' E 135°11'0 0.0
2016-May-25 22:27N 34°41' E 135°11'0 0.0
2016-May-25 21:33N 34°41' E 135°11'0 0.0
2016-May-25 20:33N 34°41' E 135°11'0 0.0
2016-May-25 19:33N 34°41' E 135°11'0 0.0
2016-May-25 18:33N 34°41' E 135°11'0 0.0
2016-May-25 17:33N 34°41' E 135°11'0 0.0
2016-May-25 16:33N 34°41' E 135°11'0 0.0
2016-May-25 15:27N 34°41' E 135°11'0 0.0
2016-May-25 14:33N 34°41' E 135°11'0 0.0
2016-May-25 13:33N 34°41' E 135°11'0 0.0
2016-May-25 12:33N 34°41' E 135°11'7 6.9
2016-May-25 11:33N 34°36' E 135°06'1 1.1
2016-May-25 10:33N 34°37' E 135°06'6 6.0
2016-May-25 09:33N 34°41' E 135°11'5 5.2
2016-May-25 08:33N 34°37' E 135°07'5 4.9
2016-May-25 07:30N 34°41' E 135°11'0 0.0
2016-May-25 06:18N 34°41' E 135°11'0 0.0
2016-May-25 05:30N 34°41' E 135°11'3 2.7
2016-May-25 04:33N 34°38' E 135°11'2 1.8
2016-May-25 03:33N 34°37' E 135°12'4 3.7
2016-May-25 02:33N 34°41' E 135°11'0 0.0
2016-May-25 01:33N 34°41' E 135°11'0 0.0
2016-May-25 00:33N 34°41' E 135°11'0 0.0
2016-May-24 23:33N 34°41' E 135°11'0 0.0
2016-May-24 22:27N 34°41' E 135°11'0 0.0
2016-May-24 21:21N 34°41' E 135°11'0 0.0
2016-May-24 20:27N 34°41' E 135°11'0 0.0
2016-May-24 19:21N 34°41' E 135°11'0 0.0
2016-May-24 18:33N 34°41' E 135°11'0 0.0
2016-May-24 17:33N 34°41' E 135°11'0 0.0
2016-May-24 16:33N 34°41' E 135°11'0 0.0
2016-May-24 15:33N 34°41' E 135°11'0 0.0
2016-May-24 14:33N 34°41' E 135°11'0 0.0
2016-May-24 13:33N 34°41' E 135°11'0 0.0
2016-May-24 12:33N 34°41' E 135°11'7 6.6
2016-May-24 11:34N 34°36' E 135°06'1 1.2
2016-May-24 10:33N 34°37' E 135°07'6 5.6
2016-May-24 09:34N 34°41' E 135°11'5 5.1
2016-May-24 08:33N 34°37' E 135°07'5 4.8
2016-May-24 07:30N 34°41' E 135°11'0 0.0
2016-May-24 06:30N 34°41' E 135°11'0 0.0
2016-May-24 05:30N 34°41' E 135°11'2 2.1
2016-May-24 04:33N 34°39' E 135°11'2 2.0
2016-May-24 03:33N 34°37' E 135°13'4 3.4
2016-May-24 02:30N 34°41' E 135°11'0 0.0
2016-May-24 01:24N 34°41' E 135°11'0 0.0
2016-May-24 00:30N 34°41' E 135°11'0 0.0
2016-May-23 23:30N 34°41' E 135°11'0 0.0
2016-May-23 22:30N 34°41' E 135°11'0 0.0
2016-May-23 21:18N 34°41' E 135°11'0 0.0
2016-May-23 20:30N 34°41' E 135°11'0 0.0
2016-May-23 19:24N 34°41' E 135°11'0 0.0
2016-May-23 18:30N 34°41' E 135°11'0 0.0
2016-May-23 17:30N 34°41' E 135°11'0 0.0
2016-May-23 16:30N 34°41' E 135°11'0 0.0
2016-May-23 15:30N 34°41' E 135°11'0 0.0
2016-May-23 14:24N 34°41' E 135°11'0 0.0
2016-May-23 13:17N 34°41' E 135°11'0 0.0
2016-May-23 12:30N 34°41' E 135°11'7 7.8
2016-May-23 11:34N 34°35' E 135°06'1 1.5
2016-May-23 10:33N 34°37' E 135°06'6 5.7
2016-May-23 09:29N 34°41' E 135°11'5 5.1
2016-May-23 08:33N 34°37' E 135°07'5 4.3
2016-May-23 07:27N 34°41' E 135°11'0 0.0
2016-May-23 06:33N 34°41' E 135°11'0 0.0
2016-May-23 05:27N 34°41' E 135°11'2 2.8
2016-May-23 04:33N 34°38' E 135°11'3 2.8
2016-May-23 03:33N 34°37' E 135°14'4 4.1
2016-May-23 02:30N 34°41' E 135°11'0 0.0
2016-May-23 01:30N 34°41' E 135°11'0 0.0
2016-May-23 00:24N 34°41' E 135°11'0 0.0
2016-May-22 23:30N 34°41' E 135°11'0 0.0
2016-May-22 22:18N 34°41' E 135°11'0 0.0
2016-May-22 21:18N 34°41' E 135°11'0 0.0
2016-May-22 20:24N 34°41' E 135°11'0 0.0
2016-May-22 19:30N 34°41' E 135°11'0 0.0
2016-May-22 18:24N 34°41' E 135°11'0 0.0
2016-May-22 17:30N 34°41' E 135°11'0 0.0
2016-May-22 16:30N 34°41' E 135°11'0 0.0
2016-May-22 15:12N 34°41' E 135°11'0 0.0
2016-May-22 14:30N 34°41' E 135°11'0 0.0
2016-May-22 13:30N 34°41' E 135°11'0 0.0
2016-May-22 12:30N 34°41' E 135°11'7 7.6
2016-May-22 11:33N 34°35' E 135°05'2 1.8
2016-May-22 10:33N 34°37' E 135°07'5 5.2
2016-May-22 09:31N 34°41' E 135°11'2 2.5
2016-May-22 08:33N 34°38' E 135°11'2 2.3
2016-May-22 07:33N 34°37' E 135°13'4 3.2
2016-May-22 06:22N 34°41' E 135°11'0 0.0
2016-May-22 05:28N 34°41' E 135°11'2 2.7
2016-May-22 04:33N 34°38' E 135°11'3 2.8
2016-May-22 03:34N 34°37' E 135°14'4 4.3
2016-May-22 02:31N 34°41' E 135°11'0 0.0
2016-May-22 01:31N 34°41' E 135°11'0 0.0
2016-May-22 00:25N 34°41' E 135°11'0 0.0
2016-May-21 23:31N 34°41' E 135°11'0 0.0
2016-May-21 22:31N 34°41' E 135°11'0 0.0
2016-May-21 21:31N 34°41' E 135°11'0 0.0
2016-May-21 20:31N 34°41' E 135°11'0 0.0
2016-May-21 19:31N 34°41' E 135°11'0 0.0
2016-May-21 18:31N 34°41' E 135°11'0 0.0
2016-May-21 17:31N 34°41' E 135°11'0 0.0
2016-May-21 16:31N 34°41' E 135°11'0 0.0
2016-May-21 15:31N 34°41' E 135°11'0 0.0
2016-May-21 14:31N 34°41' E 135°11'0 0.0
2016-May-21 13:31N 34°41' E 135°11'0 0.0
2016-May-21 12:31N 34°41' E 135°11'7 6.9
2016-May-21 11:34N 34°36' E 135°06'1 1.1
2016-May-21 10:33N 34°37' E 135°07'6 5.4
2016-May-21 09:32N 34°41' E 135°11'2 2.5
2016-May-21 08:33N 34°38' E 135°11'3 2.8
2016-May-21 07:33N 34°37' E 135°14'5 4.2
2016-May-21 06:29N 34°41' E 135°11'3 1.3
2016-May-21 04:33N 34°38' E 135°11'  
Track history (hours):
 
Tides and Currents Weather Stations Pressure Air Temp Water Temp Dewpoint Dewpoint Depression Visibility Wind Speed Wind Dir Waves Ship Positions

Luminous Kobe-2

Last reported at 2016-May-31 04:33 UTC. Time now 2016-May-31 05:54 UTC.
Position N 34°39' E 135°11'.

Length 105 m; draft 4.5 m.

Type: Passenger vessel. MMSI: 431000469.

Date/timePositionNaut miles runAvg speedWind from/ knotsBaromVisibWave heightAir tempDewpointWater temp
2016-May-31 04:33N 34°39' E 135°11'2 2.2
2016-May-31 03:33N 34°37' E 135°13'4 3.5
2016-May-31 02:29N 34°41' E 135°11'0 0.0
2016-May-31 01:29N 34°41' E 135°11'0 0.0
2016-May-31 00:29N 34°41' E 135°11'0 0.0
2016-May-30 23:28N 34°41' E 135°11'0 0.0
2016-May-30 22:29N 34°41' E 135°11'0 0.0
2016-May-30 21:22N 34°41' E 135°11'0 0.0
2016-May-30 20:29N 34°41' E 135°11'0 0.0
2016-May-30 19:29N 34°41' E 135°11'0 0.0
2016-May-30 18:28N 34°41' E 135°11'0 0.0
2016-May-30 17:28N 34°41' E 135°11'0 0.0
2016-May-30 16:28N 34°41' E 135°11'0 0.0
2016-May-30 15:28N 34°41' E 135°11'0 0.0
2016-May-30 14:28N 34°41' E 135°11'0 0.0
2016-May-30 13:28N 34°41' E 135°11'0 0.0
2016-May-30 12:28N 34°41' E 135°11'6 6.9
2016-May-30 11:33N 34°36' E 135°07'1 1.1
2016-May-30 10:34N 34°37' E 135°07'5 5.3
2016-May-30 09:33N 34°41' E 135°11'5 4.9
2016-May-30 08:33N 34°37' E 135°07'5 4.1
2016-May-30 07:22N 34°41' E 135°11'0 0.0
2016-May-30 06:28N 34°41' E 135°11'0 0.0
2016-May-30 05:28N 34°41' E 135°11'2 2.4
2016-May-30 04:33N 34°39' E 135°11'2 2.1
2016-May-30 03:33N 34°37' E 135°13'4 3.2
2016-May-30 02:23N 34°41' E 135°11'0 0.0
2016-May-30 01:29N 34°41' E 135°11'0 0.0
2016-May-30 00:29N 34°41' E 135°11'0 0.0
2016-May-29 23:23N 34°41' E 135°11'0 0.0
2016-May-29 22:23N 34°41' E 135°11'0 0.0
2016-May-29 21:29N 34°41' E 135°11'0 0.0
2016-May-29 20:29N 34°41' E 135°11'0 0.0
2016-May-29 19:29N 34°41' E 135°11'0 0.0
2016-May-29 18:29N 34°41' E 135°11'0 0.0
2016-May-29 17:29N 34°41' E 135°11'0 0.0
2016-May-29 16:29N 34°41' E 135°11'0 0.0
2016-May-29 15:23N 34°41' E 135°11'0 0.0
2016-May-29 14:29N 34°41' E 135°11'0 0.0
2016-May-29 13:29N 34°41' E 135°11'0 0.0
2016-May-29 12:29N 34°41' E 135°11'8 8.0
2016-May-29 11:33N 34°35' E 135°06'2 2.1
2016-May-29 10:33N 34°37' E 135°07'5 4.7
2016-May-29 09:23N 34°41' E 135°11'2 2.3
2016-May-29 08:33N 34°39' E 135°11'2 2.1
2016-May-29 07:33N 34°37' E 135°13'4 3.7
2016-May-29 06:33N 34°41' E 135°11'0 0.0
2016-May-29 05:33N 34°41' E 135°11'3 2.5
2016-May-29 04:33N 34°38' E 135°11'2 2.0
2016-May-29 03:33N 34°38' E 135°13'4 3.4
2016-May-29 02:32N 34°41' E 135°11'0 0.0
2016-May-29 01:32N 34°41' E 135°11'0 0.0
2016-May-29 00:32N 34°41' E 135°11'0 0.0
2016-May-28 23:32N 34°41' E 135°11'0 0.0
2016-May-28 22:32N 34°41' E 135°11'0 0.0
2016-May-28 21:26N 34°41' E 135°11'0 0.0
2016-May-28 20:32N 34°41' E 135°11'0 0.0
2016-May-28 19:32N 34°41' E 135°11'0 0.0
2016-May-28 18:32N 34°41' E 135°11'0 0.0
2016-May-28 17:26N 34°41' E 135°11'0 0.0
2016-May-28 16:32N 34°41' E 135°11'0 0.0
2016-May-28 15:32N 34°41' E 135°11'0 0.0
2016-May-28 14:32N 34°41' E 135°11'0 0.0
2016-May-28 13:32N 34°41' E 135°11'0 0.0
2016-May-28 12:26N 34°41' E 135°11'6 7.1
2016-May-28 11:33N 34°36' E 135°07'1 0.8
2016-May-28 10:33N 34°37' E 135°06'6 5.7
2016-May-28 09:31N 34°41' E 135°11'2 2.0
2016-May-28 08:33N 34°39' E 135°11'2 1.9
2016-May-28 07:33N 34°38' E 135°13'4 2.8
2016-May-28 06:18N 34°41' E 135°11'0 0.0
2016-May-28 05:24N 34°41' E 135°11'2 2.4
2016-May-28 04:33N 34°39' E 135°11'2 2.1
2016-May-28 03:33N 34°38' E 135°13'4 3.6
2016-May-28 02:33N 34°41' E 135°11'0 0.0
2016-May-28 01:33N 34°41' E 135°11'0 0.0
2016-May-28 00:27N 34°41' E 135°11'0 0.0
2016-May-27 23:09N 34°41' E 135°11'0 0.0
2016-May-27 22:33N 34°41' E 135°11'0 0.0
2016-May-27 21:27N 34°41' E 135°11'0 0.0
2016-May-27 20:27N 34°41' E 135°11'0 0.0
2016-May-27 19:33N 34°41' E 135°11'0 0.0
2016-May-27 18:27N 34°41' E 135°11'0 0.0
2016-May-27 17:33N 34°41' E 135°11'0 0.0
2016-May-27 16:33N 34°41' E 135°11'0 0.0
2016-May-27 15:33N 34°41' E 135°11'0 0.0
2016-May-27 14:33N 34°41' E 135°11'0 0.0
2016-May-27 13:33N 34°41' E 135°11'0 0.0
2016-May-27 12:33N 34°41' E 135°11'6 6.3
2016-May-27 11:33N 34°36' E 135°07'1 1.2
2016-May-27 10:33N 34°37' E 135°06'6 5.9
2016-May-27 09:33N 34°41' E 135°11'5 5.2
2016-May-27 08:34N 34°37' E 135°07'5 4.8
2016-May-27 07:29N 34°41' E 135°11'0 0.0
2016-May-27 06:29N 34°41' E 135°11'0 0.0
2016-May-27 05:29N 34°41' E 135°11'2 2.4
2016-May-27 04:33N 34°39' E 135°11'2 1.6
2016-May-27 03:33N 34°37' E 135°13'4 3.3
2016-May-27 02:30N 34°41' E 135°11'0 0.0
2016-May-27 01:30N 34°41' E 135°11'0 0.0
2016-May-27 00:30N 34°41' E 135°11'0 0.0
2016-May-26 23:30N 34°41' E 135°11'0 0.0
2016-May-26 22:30N 34°41' E 135°11'0 0.0
2016-May-26 21:30N 34°41' E 135°11'0 0.0
2016-May-26 20:30N 34°41' E 135°11'0 0.0
2016-May-26 19:30N 34°41' E 135°11'0 0.0
2016-May-26 18:30N 34°41' E 135°11'0 0.0
2016-May-26 17:30N 34°41' E 135°11'0 0.0
2016-May-26 16:30N 34°41' E 135°11'0 0.0
2016-May-26 15:30N 34°41' E 135°11'0 0.0
2016-May-26 14:30N 34°41' E 135°11'0 0.0
2016-May-26 13:30N 34°41' E 135°11'0 0.0
2016-May-26 12:30N 34°41' E 135°11'7 7.0
2016-May-26 11:33N 34°35' E 135°07'1 1.3
2016-May-26 10:33N 34°37' E 135°06'6 5.5
2016-May-26 09:28N 34°41' E 135°11'5 5.4
2016-May-26 08:33N 34°37' E 135°07'5 4.9
2016-May-26 07:33N 34°41' E 135°11'0 0.0
2016-May-26 06:33N 34°41' E 135°11'0 0.0
2016-May-26 05:33N 34°41' E 135°11'2 2.3
2016-May-26 04:33N 34°39' E 135°11'2 1.5
2016-May-26 03:31N 34°38' E 135°12'3 3.2
2016-May-26 02:27N 34°41' E 135°11'0 0.0
2016-May-26 01:33N 34°41' E 135°11'0 0.0
2016-May-26 00:27N 34°41' E 135°11'0 0.0
2016-May-25 23:33N 34°41' E 135°11'0 0.0
2016-May-25 22:27N 34°41' E 135°11'0 0.0
2016-May-25 21:33N 34°41' E 135°11'0 0.0
2016-May-25 20:33N 34°41' E 135°11'0 0.0
2016-May-25 19:33N 34°41' E 135°11'0 0.0
2016-May-25 18:33N 34°41' E 135°11'0 0.0
2016-May-25 17:33N 34°41' E 135°11'0 0.0
2016-May-25 16:33N 34°41' E 135°11'0 0.0
2016-May-25 15:27N 34°41' E 135°11'0 0.0
2016-May-25 14:33N 34°41' E 135°11'0 0.0
2016-May-25 13:33N 34°41' E 135°11'0 0.0
2016-May-25 12:33N 34°41' E 135°11'7 6.9
2016-May-25 11:33N 34°36' E 135°06'1 1.1
2016-May-25 10:33N 34°37' E 135°06'6 6.0
2016-May-25 09:33N 34°41' E 135°11'5 5.2
2016-May-25 08:33N 34°37' E 135°07'5 4.9
2016-May-25 07:30N 34°41' E 135°11'0 0.0
2016-May-25 06:18N 34°41' E 135°11'0 0.0
2016-May-25 05:30N 34°41' E 135°11'3 2.7
2016-May-25 04:33N 34°38' E 135°11'2 1.8
2016-May-25 03:33N 34°37' E 135°12'4 3.7
2016-May-25 02:33N 34°41' E 135°11'0 0.0
2016-May-25 01:33N 34°41' E 135°11'0 0.0
2016-May-25 00:33N 34°41' E 135°11'0 0.0
2016-May-24 23:33N 34°41' E 135°11'0 0.0
2016-May-24 22:27N 34°41' E 135°11'0 0.0
2016-May-24 21:21N 34°41' E 135°11'0 0.0
2016-May-24 20:27N 34°41' E 135°11'0 0.0
2016-May-24 19:21N 34°41' E 135°11'0 0.0
2016-May-24 18:33N 34°41' E 135°11'0 0.0
2016-May-24 17:33N 34°41' E 135°11'0 0.0
2016-May-24 16:33N 34°41' E 135°11'0 0.0
2016-May-24 15:33N 34°41' E 135°11'0 0.0
2016-May-24 14:33N 34°41' E 135°11'0 0.0
2016-May-24 13:33N 34°41' E 135°11'0 0.0
2016-May-24 12:33N 34°41' E 135°11'7 6.6
2016-May-24 11:34N 34°36' E 135°06'1 1.2
2016-May-24 10:33N 34°37' E 135°07'6 5.6
2016-May-24 09:34N 34°41' E 135°11'5 5.1
2016-May-24 08:33N 34°37' E 135°07'5 4.8
2016-May-24 07:30N 34°41' E 135°11'0 0.0
2016-May-24 06:30N 34°41' E 135°11'0 0.0
2016-May-24 05:30N 34°41' E 135°11'2 2.1
2016-May-24 04:33N 34°39' E 135°11'2 2.0
2016-May-24 03:33N 34°37' E 135°13'4 3.4
2016-May-24 02:30N 34°41' E 135°11'0 0.0
2016-May-24 01:24N 34°41' E 135°11'0 0.0
2016-May-24 00:30N 34°41' E 135°11'0 0.0
2016-May-23 23:30N 34°41' E 135°11'0 0.0
2016-May-23 22:30N 34°41' E 135°11'0 0.0
2016-May-23 21:18N 34°41' E 135°11'0 0.0
2016-May-23 20:30N 34°41' E 135°11'0 0.0
2016-May-23 19:24N 34°41' E 135°11'0 0.0
2016-May-23 18:30N 34°41' E 135°11'0 0.0
2016-May-23 17:30N 34°41' E 135°11'0 0.0
2016-May-23 16:30N 34°41' E 135°11'0 0.0
2016-May-23 15:30N 34°41' E 135°11'0 0.0
2016-May-23 14:24N 34°41' E 135°11'0 0.0
2016-May-23 13:17N 34°41' E 135°11'0 0.0
2016-May-23 12:30N 34°41' E 135°11'7 7.8
2016-May-23 11:34N 34°35' E 135°06'1 1.5
2016-May-23 10:33N 34°37' E 135°06'6 5.7
2016-May-23 09:29N 34°41' E 135°11'5 5.1
2016-May-23 08:33N 34°37' E 135°07'5 4.3
2016-May-23 07:27N 34°41' E 135°11'0 0.0
2016-May-23 06:33N 34°41' E 135°11'0 0.0
2016-May-23 05:27N 34°41' E 135°11'2 2.8
2016-May-23 04:33N 34°38' E 135°11'3 2.8
2016-May-23 03:33N 34°37' E 135°14'4 4.1
2016-May-23 02:30N 34°41' E 135°11'0 0.0
2016-May-23 01:30N 34°41' E 135°11'0 0.0
2016-May-23 00:24N 34°41' E 135°11'0 0.0
2016-May-22 23:30N 34°41' E 135°11'0 0.0
2016-May-22 22:18N 34°41' E 135°11'0 0.0
2016-May-22 21:18N 34°41' E 135°11'0 0.0
2016-May-22 20:24N 34°41' E 135°11'0 0.0
2016-May-22 19:30N 34°41' E 135°11'0 0.0
2016-May-22 18:24N 34°41' E 135°11'0 0.0
2016-May-22 17:30N 34°41' E 135°11'0 0.0
2016-May-22 16:30N 34°41' E 135°11'0 0.0
2016-May-22 15:12N 34°41' E 135°11'0 0.0
2016-May-22 14:30N 34°41' E 135°11'0 0.0
2016-May-22 13:30N 34°41' E 135°11'0 0.0
2016-May-22 12:30N 34°41' E 135°11'7 7.6
2016-May-22 11:33N 34°35' E 135°05'2 1.8
2016-May-22 10:33N 34°37' E 135°07'5 5.2
2016-May-22 09:31N 34°41' E 135°11'2 2.5
2016-May-22 08:33N 34°38' E 135°11'2 2.3
2016-May-22 07:33N 34°37' E 135°13'4 3.2
2016-May-22 06:22N 34°41' E 135°11'0 0.0
2016-May-22 05:28N 34°41' E 135°11'2 2.7
2016-May-22 04:33N 34°38' E 135°11'3 2.8
2016-May-22 03:34N 34°37' E 135°14'4 4.3
2016-May-22 02:31N 34°41' E 135°11'0 0.0
2016-May-22 01:31N 34°41' E 135°11'0 0.0
2016-May-22 00:25N 34°41' E 135°11'0 0.0
2016-May-21 23:31N 34°41' E 135°11'0 0.0
2016-May-21 22:31N 34°41' E 135°11'0 0.0
2016-May-21 21:31N 34°41' E 135°11'0 0.0
2016-May-21 20:31N 34°41' E 135°11'0 0.0
2016-May-21 19:31N 34°41' E 135°11'0 0.0
2016-May-21 18:31N 34°41' E 135°11'0 0.0
2016-May-21 17:31N 34°41' E 135°11'0 0.0
2016-May-21 16:31N 34°41' E 135°11'0 0.0
2016-May-21 15:31N 34°41' E 135°11'0 0.0
2016-May-21 14:31N 34°41' E 135°11'0 0.0
2016-May-21 13:31N 34°41' E 135°11'0 0.0
2016-May-21 12:31N 34°41' E 135°11'7 6.9
2016-May-21 11:34N 34°36' E 135°06'1 1.1
2016-May-21 10:33N 34°37' E 135°07'6 5.4
2016-May-21 09:32N 34°41' E 135°11'2 2.5
2016-May-21 08:33N 34°38' E 135°11'3 2.8
2016-May-21 07:33N 34°37' E 135°14'5 4.2
2016-May-21 06:29N 34°41' E 135°11'3 1.3
2016-May-21 04:33N 34°38' E 135°11'  

Dump ship's entire track history